createdAt,value
2023-03-18T00:00:21.849Z,93.98
2023-03-18T00:01:21.829Z,94.08
2023-03-18T00:02:21.882Z,93.88
2023-03-18T00:03:21.856Z,93.98
2023-03-18T00:04:21.932Z,93.88
2023-03-18T00:05:21.769Z,93.67
2023-03-18T00:06:21.769Z,93.67
2023-03-18T00:07:21.760Z,93.98
2023-03-18T00:08:21.751Z,93.88
2023-03-18T00:09:21.746Z,93.67
2023-03-18T00:10:21.730Z,93.88
2023-03-18T00:11:21.726Z,93.57
2023-03-18T00:12:21.709Z,93.67
2023-03-18T00:13:21.679Z,93.57
2023-03-18T00:14:21.699Z,93.57
2023-03-18T00:15:21.669Z,93.57
2023-03-18T00:16:21.699Z,93.43
2023-03-18T00:17:21.640Z,93.52
2023-03-18T00:18:21.691Z,93.32
2023-03-18T00:19:21.646Z,93.43
2023-03-18T00:20:21.611Z,93.43
2023-03-18T00:21:21.600Z,93.32
2023-03-18T00:22:21.592Z,93.43
2023-03-18T00:23:21.579Z,93.32
2023-03-18T00:24:21.580Z,93.43
2023-03-18T00:25:21.551Z,93.43
2023-03-18T00:26:21.552Z,93.43
2023-03-18T00:27:21.522Z,93.63
2023-03-18T00:28:21.529Z,93.84
2023-03-18T00:29:21.523Z,94.24
2023-03-18T00:30:21.512Z,94.24
2023-03-18T00:31:21.555Z,94.45
2023-03-18T00:32:21.482Z,94.34
2023-03-18T00:33:21.468Z,94.45
2023-03-18T00:34:21.477Z,94.34
2023-03-18T00:35:21.445Z,94.34
2023-03-18T00:36:21.433Z,94.55
2023-03-18T00:37:21.423Z,94.65
2023-03-18T00:38:21.420Z,94.55
2023-03-18T00:39:21.414Z,94.65
2023-03-18T00:40:21.393Z,94.65
2023-03-18T00:41:21.376Z,94.65
2023-03-18T00:42:21.375Z,94.55
2023-03-18T00:43:21.357Z,94.45
2023-03-18T00:44:21.379Z,94.65
2023-03-18T00:45:21.336Z,94.45
2023-03-18T00:46:21.354Z,94.45
2023-03-18T00:47:21.332Z,94.34
2023-03-18T00:48:21.331Z,94.34
2023-03-18T00:49:21.305Z,94.34
2023-03-18T00:50:21.303Z,94.14
2023-03-18T00:51:21.265Z,94.14
2023-03-18T00:52:21.268Z,94.20
2023-03-18T00:53:21.247Z,94.20
2023-03-18T00:54:21.276Z,94.30
2023-03-18T00:55:21.229Z,94.30
2023-03-18T00:56:21.221Z,94.30
2023-03-18T00:57:21.206Z,94.34
2023-03-18T00:58:21.350Z,94.30
2023-03-18T00:59:21.205Z,94.20
2023-03-18T01:00:21.169Z,94.30
2023-03-18T01:01:21.268Z,94.30
2023-03-18T01:02:21.159Z,94.55
2023-03-18T01:03:21.138Z,94.65
2023-03-18T01:04:21.148Z,94.75
2023-03-18T01:05:21.112Z,94.75
2023-03-18T01:06:21.220Z,94.71
2023-03-18T01:07:21.125Z,94.71
2023-03-18T01:08:21.209Z,94.60
2023-03-18T01:09:21.084Z,94.51
2023-03-18T01:10:21.075Z,94.65
2023-03-18T01:11:21.050Z,94.92
2023-03-18T01:12:21.046Z,94.92
2023-03-18T01:13:21.023Z,94.81
2023-03-18T01:14:21.041Z,94.92
2023-03-18T01:15:21.002Z,94.92
2023-03-18T01:16:21.087Z,94.71
2023-03-18T01:17:20.983Z,94.81
2023-03-18T01:18:20.987Z,94.51
2023-03-18T01:19:21.136Z,94.60
2023-03-18T01:20:20.960Z,94.71
2023-03-18T01:21:20.965Z,94.60
2023-03-18T01:22:22.057Z,94.51
2023-03-18T01:23:20.927Z,94.51
2023-03-18T01:24:20.997Z,94.60
2023-03-18T01:25:20.898Z,94.60
2023-03-18T01:26:20.902Z,94.60
2023-03-18T01:27:20.867Z,94.71
2023-03-18T01:28:20.867Z,94.81
2023-03-18T01:29:20.866Z,94.92
2023-03-18T01:30:20.846Z,94.96
2023-03-18T01:31:20.866Z,94.96
2023-03-18T01:32:20.826Z,94.96
2023-03-18T01:33:20.806Z,95.06
2023-03-18T01:34:20.815Z,95.06
2023-03-18T01:35:20.784Z,95.26
2023-03-18T01:36:20.777Z,95.26
2023-03-18T01:37:20.765Z,95.37
2023-03-18T01:38:20.759Z,95.47
2023-03-18T01:39:20.745Z,95.47
2023-03-18T01:40:20.733Z,95.37
2023-03-18T01:41:20.715Z,95.47
2023-03-18T01:42:20.706Z,95.57
2023-03-18T01:43:20.701Z,95.67
2023-03-18T01:44:20.725Z,95.67
2023-03-18T01:45:20.683Z,95.57
2023-03-18T01:46:20.663Z,95.78
2023-03-18T01:47:20.647Z,95.78
2023-03-18T01:48:20.644Z,95.82
2023-03-18T01:49:20.705Z,95.78
2023-03-18T01:50:20.617Z,95.72
2023-03-18T01:51:21.188Z,95.82
2023-03-18T01:52:20.615Z,95.92
2023-03-18T01:53:20.585Z,95.98
2023-03-18T01:54:21.500Z,95.72
2023-03-18T01:55:20.567Z,95.78
2023-03-18T01:56:20.597Z,95.67
2023-03-18T01:57:20.539Z,95.67
2023-03-18T01:58:20.536Z,95.78
2023-03-18T01:59:20.529Z,95.57
2023-03-18T02:00:20.505Z,95.67
2023-03-18T02:01:20.525Z,95.67
2023-03-18T02:02:20.486Z,95.78
2023-03-18T02:03:20.466Z,95.67
2023-03-18T02:04:20.485Z,95.57
2023-03-18T02:05:20.469Z,95.67
2023-03-18T02:06:20.438Z,95.57
2023-03-18T02:07:20.430Z,95.47
2023-03-18T02:08:20.433Z,95.37
2023-03-18T02:09:20.410Z,95.47
2023-03-18T02:10:20.397Z,95.47
2023-03-18T02:11:20.393Z,95.47
2023-03-18T02:12:20.385Z,95.47
2023-03-18T02:13:20.373Z,95.37
2023-03-18T02:14:20.372Z,95.37
2023-03-18T02:15:20.340Z,95.26
2023-03-18T02:16:20.408Z,95.26
2023-03-18T02:17:20.335Z,95.17
2023-03-18T02:18:20.322Z,95.06
2023-03-18T02:19:20.363Z,95.06
2023-03-18T02:20:20.291Z,95.06
2023-03-18T02:21:20.294Z,95.17
2023-03-18T02:22:20.264Z,94.96
2023-03-18T02:23:20.262Z,94.96
2023-03-18T02:24:20.257Z,95.06
2023-03-18T02:25:20.245Z,95.17
2023-03-18T02:26:20.237Z,95.17
2023-03-18T02:27:20.215Z,94.85
2023-03-18T02:28:20.253Z,94.96
2023-03-18T02:29:20.331Z,94.85
2023-03-18T02:30:20.185Z,94.65
2023-03-18T02:31:20.307Z,94.96
2023-03-18T02:32:20.153Z,95.06
2023-03-18T02:33:20.145Z,94.85
2023-03-18T02:34:20.153Z,94.85
2023-03-18T02:35:20.140Z,94.96
2023-03-18T02:36:20.106Z,95.17
2023-03-18T02:37:20.114Z,95.06
2023-03-18T02:38:20.097Z,94.96
2023-03-18T02:39:20.140Z,95.17
2023-03-18T02:40:20.085Z,94.96
2023-03-18T02:41:20.117Z,95.06
2023-03-18T02:42:20.124Z,95.06
2023-03-18T02:43:20.056Z,95.06
2023-03-18T02:44:20.046Z,95.17
2023-03-18T02:45:20.106Z,95.31
2023-03-18T02:46:20.066Z,95.21
2023-03-18T02:47:19.998Z,95.10
2023-03-18T02:48:19.977Z,95.31
2023-03-18T02:49:19.982Z,95.51
2023-03-18T02:50:19.968Z,95.62
2023-03-18T02:51:19.957Z,95.72
2023-03-18T02:52:19.948Z,95.72
2023-03-18T02:53:19.941Z,95.72
2023-03-18T02:54:19.949Z,95.51
2023-03-18T02:55:19.900Z,95.41
2023-03-18T02:56:19.901Z,95.51
2023-03-18T02:57:19.886Z,95.51
2023-03-18T02:58:19.901Z,95.31
2023-03-18T02:59:19.874Z,95.31
2023-03-18T03:00:19.874Z,95.41
2023-03-18T03:01:19.924Z,95.31
2023-03-18T03:02:19.888Z,95.41
2023-03-18T03:03:19.928Z,95.31
2023-03-18T03:04:19.812Z,95.56
2023-03-18T03:05:19.805Z,95.66
2023-03-18T03:06:19.811Z,95.76
2023-03-18T03:07:19.776Z,95.87
2023-03-18T03:08:19.766Z,95.76
2023-03-18T03:09:19.764Z,95.87
2023-03-18T03:10:19.756Z,95.97
2023-03-18T03:11:19.737Z,96.28
2023-03-18T03:12:19.778Z,96.32
2023-03-18T03:13:19.718Z,96.12
2023-03-18T03:14:19.703Z,96.32
2023-03-18T03:15:19.697Z,96.53
2023-03-18T03:16:19.734Z,96.53
2023-03-18T03:17:19.676Z,96.63
2023-03-18T03:18:19.666Z,96.73
2023-03-18T03:19:19.636Z,96.83
2023-03-18T03:20:19.647Z,96.88
2023-03-18T03:21:19.626Z,97.08
2023-03-18T03:22:19.618Z,97.19
2023-03-18T03:23:19.598Z,97.49
2023-03-18T03:24:19.597Z,97.49
2023-03-18T03:25:19.652Z,97.39
2023-03-18T03:26:19.588Z,97.39
2023-03-18T03:27:19.562Z,97.29
2023-03-18T03:28:19.552Z,97.39
2023-03-18T03:29:19.547Z,97.39
2023-03-18T03:30:19.548Z,97.49
2023-03-18T03:31:19.536Z,97.60
2023-03-18T03:32:19.511Z,97.60
2023-03-18T03:33:19.491Z,97.60
2023-03-18T03:34:19.506Z,97.80
2023-03-18T03:35:19.489Z,97.80
2023-03-18T03:36:19.536Z,97.60
2023-03-18T03:37:19.449Z,97.60
2023-03-18T03:38:19.445Z,97.45
2023-03-18T03:39:19.441Z,97.29
2023-03-18T03:40:19.431Z,96.98
2023-03-18T03:41:19.429Z,96.94
2023-03-18T03:42:19.400Z,96.83
2023-03-18T03:43:19.487Z,96.83
2023-03-18T03:44:19.470Z,96.83
2023-03-18T03:45:19.398Z,96.53
2023-03-18T03:46:19.500Z,96.63
2023-03-18T03:47:19.510Z,96.63
2023-03-18T03:48:19.336Z,96.32
2023-03-18T03:49:19.352Z,96.22
2023-03-18T03:50:19.380Z,96.01
2023-03-18T03:51:19.357Z,95.81
2023-03-18T03:52:19.315Z,96.01
2023-03-18T03:53:19.277Z,96.01
2023-03-18T03:54:19.303Z,95.66
2023-03-18T03:55:19.332Z,95.36
2023-03-18T03:56:19.315Z,95.15
2023-03-18T03:57:19.370Z,95.05
2023-03-18T03:58:19.255Z,95.05
2023-03-18T03:59:19.414Z,94.84
2023-03-18T04:00:19.387Z,94.64
2023-03-18T04:01:19.185Z,94.68
2023-03-18T04:02:19.261Z,94.78
2023-03-18T04:03:19.164Z,94.58
2023-03-18T04:04:19.169Z,94.89
2023-03-18T04:05:19.142Z,94.68
2023-03-18T04:06:19.203Z,94.58
2023-03-18T04:07:19.120Z,94.78
2023-03-18T04:08:19.178Z,94.58
2023-03-18T04:09:19.174Z,94.78
2023-03-18T04:10:19.126Z,94.48
2023-03-18T04:11:19.081Z,94.64
2023-03-18T04:12:19.063Z,94.54
2023-03-18T04:13:19.060Z,94.23
2023-03-18T04:14:19.063Z,94.12
2023-03-18T04:15:19.266Z,94.12
2023-03-18T04:16:19.244Z,94.17
2023-03-18T04:17:19.147Z,94.12
2023-03-18T04:18:19.102Z,94.02
2023-03-18T04:19:19.021Z,93.82
2023-03-18T04:20:19.008Z,93.71
2023-03-18T04:21:18.954Z,93.71
2023-03-18T04:22:18.953Z,93.62
2023-03-18T04:23:19.058Z,93.62
2023-03-18T04:24:19.032Z,93.71
2023-03-18T04:25:19.015Z,93.71
2023-03-18T04:26:19.096Z,93.92
2023-03-18T04:27:18.959Z,93.71
2023-03-18T04:28:18.902Z,93.82
2023-03-18T04:29:18.886Z,93.71
2023-03-18T04:30:18.905Z,93.82
2023-03-18T04:31:18.900Z,93.82
2023-03-18T04:32:18.847Z,93.62
2023-03-18T04:33:18.876Z,93.71
2023-03-18T04:34:18.934Z,93.26
2023-03-18T04:35:18.890Z,92.85
2023-03-18T04:36:18.805Z,92.75
2023-03-18T04:37:18.819Z,92.55
2023-03-18T04:38:18.781Z,92.34
2023-03-18T04:39:18.784Z,92.34
2023-03-18T04:40:18.758Z,92.14
2023-03-18T04:41:18.832Z,92.34
2023-03-18T04:42:18.806Z,92.44
2023-03-18T04:43:18.795Z,92.69
2023-03-18T04:44:18.725Z,92.79
2023-03-18T04:45:18.727Z,92.75
2023-03-18T04:46:18.714Z,92.75
2023-03-18T04:47:18.696Z,92.75
2023-03-18T04:48:18.685Z,92.79
2023-03-18T04:49:18.674Z,92.69
2023-03-18T04:50:18.707Z,92.79
2023-03-18T04:51:18.658Z,92.69
2023-03-18T04:52:18.634Z,92.79
2023-03-18T04:53:18.643Z,92.90
2023-03-18T04:54:18.638Z,93.00
2023-03-18T04:55:18.589Z,92.90
2023-03-18T04:56:18.584Z,92.90
2023-03-18T04:57:18.559Z,92.90
2023-03-18T04:58:18.588Z,92.90
2023-03-18T04:59:18.720Z,92.79
2023-03-18T05:00:18.607Z,92.79
2023-03-18T05:01:18.652Z,92.69
2023-03-18T05:02:18.570Z,92.90
2023-03-18T05:03:18.498Z,92.79
2023-03-18T05:04:18.560Z,93.00
2023-03-18T05:05:18.489Z,93.00
2023-03-18T05:06:18.490Z,93.10
2023-03-18T05:07:18.471Z,92.90
2023-03-18T05:08:18.719Z,92.90
2023-03-18T05:09:18.488Z,93.00
2023-03-18T05:10:18.550Z,93.10
2023-03-18T05:11:18.825Z,92.90
2023-03-18T05:12:18.411Z,92.79
2023-03-18T05:13:18.492Z,92.83
2023-03-18T05:14:18.489Z,93.04
2023-03-18T05:15:18.403Z,93.04
2023-03-18T05:16:18.793Z,93.15
2023-03-18T05:17:18.361Z,93.04
2023-03-18T05:18:18.417Z,93.04
2023-03-18T05:19:18.339Z,93.25
2023-03-18T05:20:18.324Z,93.25
2023-03-18T05:21:18.318Z,93.25
2023-03-18T05:22:18.309Z,93.15
2023-03-18T05:23:18.294Z,93.25
2023-03-18T05:24:18.305Z,93.25
2023-03-18T05:25:18.358Z,93.04
2023-03-18T05:26:18.303Z,93.04
2023-03-18T05:27:18.390Z,93.15
2023-03-18T05:28:18.231Z,93.15
2023-03-18T05:29:18.215Z,92.94
2023-03-18T05:30:18.245Z,92.98
2023-03-18T05:31:18.614Z,93.19
2023-03-18T05:32:18.196Z,93.15
2023-03-18T05:33:18.342Z,93.04
2023-03-18T05:34:18.359Z,93.08
2023-03-18T05:35:18.155Z,93.29
2023-03-18T05:36:18.185Z,93.19
2023-03-18T05:37:18.162Z,93.19
2023-03-18T05:38:18.137Z,93.08
2023-03-18T05:39:18.104Z,92.98
2023-03-18T05:40:18.096Z,93.19
2023-03-18T05:41:18.200Z,93.08
2023-03-18T05:42:18.114Z,93.08
2023-03-18T05:43:18.070Z,93.08
2023-03-18T05:44:18.055Z,92.98
2023-03-18T05:45:18.075Z,92.98
2023-03-18T05:46:18.123Z,92.98
2023-03-18T05:47:18.043Z,92.98
2023-03-18T05:48:18.009Z,93.08
2023-03-18T05:49:18.071Z,93.08
2023-03-18T05:50:18.035Z,93.19
2023-03-18T05:51:17.974Z,93.29
2023-03-18T05:52:18.271Z,93.29
2023-03-18T05:53:17.991Z,93.33
2023-03-18T05:54:17.956Z,93.33
2023-03-18T05:55:17.979Z,93.33
2023-03-18T05:56:17.928Z,93.33
2023-03-18T05:57:17.941Z,93.33
2023-03-18T05:58:17.899Z,93.64
2023-03-18T05:59:17.908Z,93.64
2023-03-18T06:00:18.084Z,93.64
2023-03-18T06:01:17.872Z,93.74
2023-03-18T06:02:17.979Z,93.74
2023-03-18T06:03:17.930Z,93.64
2023-03-18T06:04:17.873Z,93.64
2023-03-18T06:05:17.862Z,93.74
2023-03-18T06:06:17.900Z,93.68
2023-03-18T06:07:17.944Z,93.79
2023-03-18T06:08:17.819Z,93.89
2023-03-18T06:09:17.793Z,93.95
2023-03-18T06:10:17.772Z,93.74
2023-03-18T06:11:17.829Z,93.64
2023-03-18T06:12:17.792Z,93.64
2023-03-18T06:13:17.742Z,93.74
2023-03-18T06:14:17.891Z,93.64
2023-03-18T06:15:17.714Z,93.64
2023-03-18T06:16:17.797Z,93.64
2023-03-18T06:17:17.694Z,93.54
2023-03-18T06:18:17.676Z,93.33
2023-03-18T06:19:17.758Z,93.33
2023-03-18T06:20:17.665Z,93.13
2023-03-18T06:21:17.665Z,93.13
2023-03-18T06:22:17.666Z,93.13
2023-03-18T06:23:17.637Z,93.02
2023-03-18T06:24:17.631Z,92.88
2023-03-18T06:25:17.606Z,92.68
2023-03-18T06:26:17.648Z,92.36
2023-03-18T06:27:17.609Z,92.47
2023-03-18T06:28:17.589Z,92.36
2023-03-18T06:29:17.578Z,92.47
2023-03-18T06:30:17.554Z,92.47
2023-03-18T06:31:17.573Z,92.47
2023-03-18T06:32:17.538Z,92.36
2023-03-18T06:33:17.517Z,92.57
2023-03-18T06:34:17.522Z,92.47
2023-03-18T06:35:17.515Z,92.47
2023-03-18T06:36:17.490Z,92.47
2023-03-18T06:37:17.490Z,92.36
2023-03-18T06:38:17.471Z,92.47
2023-03-18T06:39:17.448Z,92.27
2023-03-18T06:40:17.493Z,92.02
2023-03-18T06:41:17.431Z,91.71
2023-03-18T06:42:17.452Z,91.40
2023-03-18T06:43:17.410Z,91.30
2023-03-18T06:44:17.534Z,91.05
2023-03-18T06:45:17.389Z,90.95
2023-03-18T06:46:17.439Z,90.75
2023-03-18T06:47:17.361Z,90.34
2023-03-18T06:48:17.362Z,90.30
2023-03-18T06:49:17.362Z,89.98
2023-03-18T06:50:17.425Z,89.98
2023-03-18T06:51:17.320Z,89.89
2023-03-18T06:52:17.312Z,89.43
2023-03-18T06:53:17.313Z,89.23
2023-03-18T06:54:17.296Z,89.03
2023-03-18T06:55:17.290Z,89.12
2023-03-18T06:56:17.369Z,88.98
2023-03-18T06:57:17.266Z,88.68
2023-03-18T06:58:17.360Z,88.47
2023-03-18T06:59:17.259Z,88.47
2023-03-18T07:00:17.350Z,88.23
2023-03-18T07:01:17.233Z,88.02
2023-03-18T07:02:17.231Z,87.71
2023-03-18T07:03:17.184Z,87.00
2023-03-18T07:04:17.261Z,87.26
2023-03-18T07:05:17.175Z,86.85
2023-03-18T07:06:17.252Z,86.85
2023-03-18T07:07:17.144Z,86.85
2023-03-18T07:08:17.134Z,86.76
2023-03-18T07:09:17.143Z,86.30
2023-03-18T07:10:17.115Z,86.71
2023-03-18T07:11:17.108Z,86.61
2023-03-18T07:12:17.087Z,86.10
2023-03-18T07:13:17.074Z,86.30
2023-03-18T07:14:17.084Z,85.55
2023-03-18T07:15:17.060Z,85.35
2023-03-18T07:16:17.094Z,85.45
2023-03-18T07:17:17.044Z,85.35
2023-03-18T07:18:17.028Z,85.10
2023-03-18T07:19:17.033Z,85.10
2023-03-18T07:20:17.013Z,84.90
2023-03-18T07:21:16.984Z,84.90
2023-03-18T07:22:16.976Z,84.49
2023-03-18T07:23:16.972Z,84.55
2023-03-18T07:24:16.975Z,84.55
2023-03-18T07:25:16.938Z,84.55
2023-03-18T07:26:17.001Z,84.00
2023-03-18T07:27:16.922Z,83.18
2023-03-18T07:28:16.915Z,83.29
2023-03-18T07:29:16.913Z,82.78
2023-03-18T07:30:16.906Z,82.78
2023-03-18T07:31:16.933Z,82.57
2023-03-18T07:32:16.880Z,82.68
2023-03-18T07:33:16.894Z,82.74
2023-03-18T07:34:16.876Z,82.54
2023-03-18T07:35:16.849Z,82.64
2023-03-18T07:36:16.833Z,82.19
2023-03-18T07:37:16.815Z,81.68
2023-03-18T07:38:16.852Z,81.99
2023-03-18T07:39:16.781Z,81.48
2023-03-18T07:40:16.835Z,81.38
2023-03-18T07:41:16.771Z,81.27
2023-03-18T07:42:16.764Z,81.65
2023-03-18T07:43:16.761Z,80.63
2023-03-18T07:44:16.828Z,80.02
2023-03-18T07:45:17.301Z,80.32
2023-03-18T07:46:16.749Z,80.90
2023-03-18T07:47:16.699Z,80.49
2023-03-18T07:48:16.804Z,80.29
2023-03-18T07:49:19.409Z,79.06
2023-03-18T07:50:17.348Z,79.20
2023-03-18T07:51:17.152Z,79.57
2023-03-18T07:52:16.840Z,78.96
2023-03-18T07:53:17.117Z,79.27
2023-03-18T07:54:16.891Z,79.06
2023-03-18T07:55:16.615Z,78.86
2023-03-18T07:56:19.022Z,78.96
2023-03-18T07:57:17.064Z,79.16
2023-03-18T07:58:16.599Z,79.02
2023-03-18T07:59:18.688Z,79.02
2023-03-18T08:00:16.557Z,79.23
2023-03-18T08:01:16.654Z,78.52
2023-03-18T08:02:16.605Z,78.68
2023-03-18T08:03:16.694Z,78.38
2023-03-18T08:04:16.706Z,77.81
2023-03-18T08:05:16.567Z,77.60
2023-03-18T08:06:17.791Z,78.08
2023-03-18T08:07:16.482Z,77.77
2023-03-18T08:08:16.550Z,77.56
2023-03-18T08:09:16.451Z,78.17
2023-03-18T08:10:16.467Z,78.48
2023-03-18T08:11:16.758Z,78.89
2023-03-18T08:12:18.726Z,77.56
2023-03-18T08:13:16.414Z,77.67
2023-03-18T08:14:16.425Z,77.87
2023-03-18T08:15:16.486Z,77.67
2023-03-18T08:16:16.525Z,77.56
2023-03-18T08:17:16.376Z,77.77
2023-03-18T08:18:17.081Z,77.77
2023-03-18T08:19:16.415Z,77.67
2023-03-18T08:20:17.375Z,78.11
2023-03-18T08:21:16.754Z,77.50
2023-03-18T08:22:16.323Z,77.50
2023-03-18T08:23:16.350Z,78.21
2023-03-18T08:24:16.400Z,78.31
2023-03-18T08:25:16.312Z,77.56
2023-03-18T08:26:16.275Z,77.67
2023-03-18T08:27:16.263Z,76.86
2023-03-18T08:28:16.260Z,77.56
2023-03-18T08:29:16.246Z,77.83
2023-03-18T08:30:16.266Z,77.43
2023-03-18T08:31:16.261Z,76.41
2023-03-18T08:32:16.257Z,76.31
2023-03-18T08:33:16.189Z,76.61
2023-03-18T08:34:16.256Z,75.60
2023-03-18T08:35:16.169Z,76.31
2023-03-18T08:36:16.212Z,76.01
2023-03-18T08:37:16.153Z,76.58
2023-03-18T08:38:16.145Z,76.21
2023-03-18T08:39:16.139Z,76.28
2023-03-18T08:40:16.163Z,75.56
2023-03-18T08:41:16.104Z,76.68
2023-03-18T08:42:16.092Z,77.19
2023-03-18T08:43:16.088Z,75.67
2023-03-18T08:44:16.104Z,75.90
2023-03-18T08:45:16.067Z,75.80
2023-03-18T08:46:16.177Z,75.40
2023-03-18T08:47:16.050Z,75.19
2023-03-18T08:48:16.025Z,75.80
2023-03-18T08:49:16.056Z,75.60
2023-03-18T08:50:16.068Z,75.09
2023-03-18T08:51:16.016Z,75.60
2023-03-18T08:52:16.204Z,76.51
2023-03-18T08:53:15.980Z,76.01
2023-03-18T08:54:15.988Z,75.49
2023-03-18T08:55:16.021Z,74.99
2023-03-18T08:56:16.054Z,75.09
2023-03-18T08:57:15.944Z,75.70
2023-03-18T08:58:15.960Z,75.19
2023-03-18T08:59:15.926Z,75.40
2023-03-18T09:00:15.900Z,75.29
2023-03-18T09:01:15.999Z,76.01
2023-03-18T09:02:15.882Z,75.40
2023-03-18T09:03:15.904Z,76.01
2023-03-18T09:04:15.884Z,75.26
2023-03-18T09:05:15.863Z,76.01
2023-03-18T09:06:15.824Z,75.67
2023-03-18T09:07:17.961Z,74.95
2023-03-18T09:08:15.957Z,75.16
2023-03-18T09:09:15.814Z,74.95
2023-03-18T09:10:15.796Z,75.02
2023-03-18T09:11:15.787Z,75.02
2023-03-18T09:12:15.800Z,75.12
2023-03-18T09:13:15.757Z,75.43
2023-03-18T09:14:15.785Z,75.12
2023-03-18T09:15:15.738Z,74.10
2023-03-18T09:16:15.782Z,73.77
2023-03-18T09:17:15.731Z,73.60
2023-03-18T09:18:15.767Z,73.50
2023-03-18T09:19:15.722Z,73.90
2023-03-18T09:20:15.677Z,73.87
2023-03-18T09:21:15.672Z,73.66
2023-03-18T09:22:15.743Z,73.97
2023-03-18T09:23:15.685Z,73.26
2023-03-18T09:24:15.713Z,73.26
2023-03-18T09:25:15.822Z,73.26
2023-03-18T09:26:15.699Z,73.46
2023-03-18T09:27:15.605Z,73.57
2023-03-18T09:28:15.611Z,73.26
2023-03-18T09:29:15.619Z,72.85
2023-03-18T09:30:15.585Z,73.12
2023-03-18T09:31:15.749Z,72.21
2023-03-18T09:32:15.564Z,72.92
2023-03-18T09:33:15.543Z,72.11
2023-03-18T09:34:15.542Z,72.45
2023-03-18T09:35:15.527Z,72.52
2023-03-18T09:36:15.549Z,71.91
2023-03-18T09:37:15.503Z,71.60
2023-03-18T09:38:15.511Z,71.50
2023-03-18T09:39:15.480Z,71.97
2023-03-18T09:40:15.468Z,70.35
2023-03-18T09:41:15.494Z,70.96
2023-03-18T09:42:15.483Z,70.39
2023-03-18T09:43:15.528Z,70.79
2023-03-18T09:44:15.446Z,70.76
2023-03-18T09:45:15.411Z,71.06
2023-03-18T09:46:15.510Z,70.76
2023-03-18T09:47:15.525Z,71.88
2023-03-18T09:48:15.412Z,70.35
2023-03-18T09:49:15.374Z,69.84
2023-03-18T09:50:15.359Z,71.06
2023-03-18T09:51:16.609Z,70.62
2023-03-18T09:52:15.330Z,70.72
2023-03-18T09:53:15.325Z,69.37
2023-03-18T09:54:15.328Z,70.29
2023-03-18T09:55:15.297Z,70.65
2023-03-18T09:56:15.324Z,69.34
2023-03-18T09:57:15.285Z,69.81
2023-03-18T09:58:15.339Z,70.32
2023-03-18T09:59:15.297Z,67.99
2023-03-18T10:00:15.334Z,68.10
2023-03-18T10:01:15.249Z,66.98
2023-03-18T10:02:15.255Z,65.67
2023-03-18T10:03:15.230Z,66.07
2023-03-18T10:04:15.304Z,67.69
2023-03-18T10:05:15.188Z,66.85
2023-03-18T10:06:15.203Z,66.64
2023-03-18T10:07:15.157Z,65.23
2023-03-18T10:08:15.170Z,66.14
2023-03-18T10:09:15.151Z,66.75
2023-03-18T10:10:15.133Z,66.21
2023-03-18T10:11:15.123Z,64.90
2023-03-18T10:12:15.108Z,65.91
2023-03-18T10:13:15.098Z,64.70
2023-03-18T10:14:15.115Z,64.39
2023-03-18T10:15:15.078Z,64.87
2023-03-18T10:16:15.136Z,64.84
2023-03-18T10:17:15.056Z,64.43
2023-03-18T10:18:15.037Z,64.61
2023-03-18T10:19:15.037Z,64.98
2023-03-18T10:20:15.496Z,64.54
2023-03-18T10:21:15.022Z,63.93
2023-03-18T10:22:15.090Z,63.33
2023-03-18T10:23:14.989Z,61.04
2023-03-18T10:24:14.979Z,61.98
2023-03-18T10:25:15.001Z,62.25
2023-03-18T10:26:14.994Z,62.76
2023-03-18T10:27:14.941Z,62.76
2023-03-18T10:28:14.942Z,62.45
2023-03-18T10:29:14.933Z,61.88
2023-03-18T10:30:15.064Z,63.79
2023-03-18T10:31:14.979Z,63.06
2023-03-18T10:32:15.017Z,62.96
2023-03-18T10:33:14.926Z,62.76
2023-03-18T10:34:14.948Z,61.27
2023-03-18T10:35:14.869Z,61.27
2023-03-18T10:36:15.031Z,61.98
2023-03-18T10:37:14.840Z,61.57
2023-03-18T10:38:14.868Z,60.77
2023-03-18T10:39:14.851Z,62.05
2023-03-18T10:40:14.829Z,60.97
2023-03-18T10:41:14.794Z,60.87
2023-03-18T10:42:14.833Z,61.14
2023-03-18T10:43:14.772Z,60.36
2023-03-18T10:44:14.842Z,59.86
2023-03-18T10:45:14.779Z,59.69
2023-03-18T10:46:14.841Z,60.87
2023-03-18T10:47:14.870Z,62.15
2023-03-18T10:48:14.715Z,61.85
2023-03-18T10:49:14.736Z,62.35
2023-03-18T10:50:14.705Z,63.09
2023-03-18T10:51:14.688Z,63.29
2023-03-18T10:52:14.738Z,62.59
2023-03-18T10:53:14.667Z,62.68
2023-03-18T10:54:14.768Z,62.88
2023-03-18T10:55:14.638Z,62.55
2023-03-18T10:56:14.689Z,61.85
2023-03-18T10:57:14.631Z,62.02
2023-03-18T10:58:14.621Z,61.08
2023-03-18T10:59:14.611Z,60.58
2023-03-18T11:00:14.591Z,59.97
2023-03-18T11:01:17.051Z,59.90
2023-03-18T11:02:14.663Z,60.81
2023-03-18T11:03:14.567Z,61.08
2023-03-18T11:04:14.578Z,60.35
2023-03-18T11:05:14.545Z,61.50
2023-03-18T11:06:14.547Z,59.79
2023-03-18T11:07:14.530Z,60.60
2023-03-18T11:08:14.547Z,60.19
2023-03-18T11:09:14.498Z,59.66
2023-03-18T11:10:14.529Z,60.06
2023-03-18T11:11:14.476Z,59.06
2023-03-18T11:12:14.508Z,57.65
2023-03-18T11:13:14.448Z,57.42
2023-03-18T11:14:14.499Z,56.24
2023-03-18T11:15:14.441Z,56.92
2023-03-18T11:16:14.513Z,58.51
2023-03-18T11:17:14.410Z,58.21
2023-03-18T11:18:14.407Z,57.70
2023-03-18T11:19:14.392Z,57.86
2023-03-18T11:20:14.401Z,58.26
2023-03-18T11:21:14.364Z,59.27
2023-03-18T11:22:14.413Z,58.67
2023-03-18T11:23:14.344Z,59.50
2023-03-18T11:24:14.336Z,61.18
2023-03-18T11:25:14.364Z,61.92
2023-03-18T11:26:14.367Z,60.21
2023-03-18T11:27:14.319Z,61.01
2023-03-18T11:28:14.313Z,61.11
2023-03-18T11:29:14.289Z,61.32
2023-03-18T11:30:18.673Z,59.93
2023-03-18T11:31:15.430Z,59.80
2023-03-18T11:32:14.274Z,61.32
2023-03-18T11:33:14.361Z,61.01
2023-03-18T11:34:14.459Z,59.70
2023-03-18T11:35:14.298Z,59.30
2023-03-18T11:36:14.331Z,60.10
2023-03-18T11:37:14.195Z,60.17
2023-03-18T11:38:14.250Z,60.58
2023-03-18T11:39:14.188Z,61.59
2023-03-18T11:40:14.280Z,61.59
2023-03-18T11:41:14.169Z,60.08
2023-03-18T11:42:14.196Z,59.07
2023-03-18T11:43:14.122Z,59.77
2023-03-18T11:44:14.322Z,59.37
2023-03-18T11:45:14.119Z,59.37
2023-03-18T11:46:14.092Z,60.08
2023-03-18T11:47:14.090Z,60.88
2023-03-18T11:48:14.070Z,60.38
2023-03-18T11:49:14.062Z,60.21
2023-03-18T11:50:14.134Z,61.04
2023-03-18T11:51:14.044Z,61.72
2023-03-18T11:52:14.115Z,60.71
2023-03-18T11:53:14.023Z,61.21
2023-03-18T11:54:14.037Z,62.29
2023-03-18T11:55:14.029Z,62.19
2023-03-18T11:56:14.016Z,60.17
2023-03-18T11:57:13.977Z,60.78
2023-03-18T11:58:14.005Z,61.61
2023-03-18T11:59:13.976Z,60.68
2023-03-18T12:00:13.955Z,60.88
2023-03-18T12:01:13.951Z,60.41
2023-03-18T12:02:14.004Z,60.21
2023-03-18T12:03:13.909Z,60.78
2023-03-18T12:04:14.183Z,61.08
2023-03-18T12:05:13.944Z,60.88
2023-03-18T12:06:13.880Z,61.18
2023-03-18T12:07:13.872Z,60.17
2023-03-18T12:08:13.882Z,60.25
2023-03-18T12:09:13.852Z,59.55
2023-03-18T12:10:13.891Z,60.15
2023-03-18T12:11:13.835Z,60.55
2023-03-18T12:12:13.834Z,60.12
2023-03-18T12:13:13.844Z,60.93
2023-03-18T12:14:13.930Z,59.42
2023-03-18T12:15:13.784Z,60.32
2023-03-18T12:16:13.947Z,60.83
2023-03-18T12:17:13.766Z,60.42
2023-03-18T12:18:13.740Z,58.91
2023-03-18T12:19:13.749Z,58.74
2023-03-18T12:20:13.775Z,59.75
2023-03-18T12:21:13.726Z,59.44
2023-03-18T12:22:13.698Z,58.44
2023-03-18T12:23:13.691Z,59.14
2023-03-18T12:24:13.756Z,59.88
2023-03-18T12:25:13.671Z,59.77
2023-03-18T12:26:13.720Z,59.55
2023-03-18T12:27:13.666Z,59.34
2023-03-18T12:28:13.635Z,59.75
2023-03-18T12:29:13.632Z,58.64
2023-03-18T12:30:13.618Z,58.84
2023-03-18T12:31:13.648Z,59.07
2023-03-18T12:32:13.613Z,59.07
2023-03-18T12:33:13.595Z,59.47
2023-03-18T12:34:15.063Z,60.38
2023-03-18T12:35:15.557Z,59.88
2023-03-18T12:36:13.556Z,59.75
2023-03-18T12:37:13.546Z,58.74
2023-03-18T12:38:13.527Z,59.84
2023-03-18T12:39:13.518Z,58.03
2023-03-18T12:40:13.522Z,59.04
2023-03-18T12:41:13.497Z,59.14
2023-03-18T12:42:13.481Z,59.07
2023-03-18T12:43:13.479Z,59.67
2023-03-18T12:44:13.485Z,59.34
2023-03-18T12:45:13.472Z,60.15
2023-03-18T12:46:13.511Z,59.75
2023-03-18T12:47:13.431Z,59.24
2023-03-18T12:48:13.420Z,59.37
2023-03-18T12:49:13.418Z,59.88
2023-03-18T12:50:13.425Z,60.28
2023-03-18T12:51:13.384Z,60.38
2023-03-18T12:52:14.110Z,59.77